createdAt,value
2019-05-30T00:01:02.118Z,3.47
2019-05-30T00:03:06.288Z,1.40
2019-05-30T00:05:10.855Z,2.23
2019-05-30T00:07:14.773Z,2.80
2019-05-30T00:09:18.713Z,1.63
2019-05-30T00:11:22.582Z,2.70
2019-05-30T00:13:26.470Z,1.73
2019-05-30T00:15:31.005Z,1.80
2019-05-30T00:17:34.893Z,1.83
2019-05-30T00:19:38.942Z,1.90
2019-05-30T00:21:42.831Z,3.17
2019-05-30T00:23:46.713Z,2.77
2019-05-30T00:25:50.673Z,1.70
2019-05-30T00:27:55.073Z,1.83
2019-05-30T00:29:59.304Z,1.93
2019-05-30T00:32:04.091Z,1.80
2019-05-30T00:34:08.632Z,2.80
2019-05-30T00:36:12.697Z,2.57
2019-05-30T00:38:16.603Z,1.60
2019-05-30T00:40:20.490Z,1.10
2019-05-30T00:42:24.423Z,2.13
2019-05-30T00:44:28.352Z,1.80
2019-05-30T00:46:32.316Z,1.97
2019-05-30T00:48:36.233Z,2.30
2019-05-30T00:50:40.112Z,1.80
2019-05-30T00:52:44.024Z,3.73
2019-05-30T00:54:47.926Z,1.90
2019-05-30T00:56:52.155Z,2.87
2019-05-30T00:58:56.489Z,1.60
2019-05-30T01:01:01.049Z,1.30
2019-05-30T01:03:06.894Z,1.40
2019-05-30T01:05:10.690Z,2.70
2019-05-30T01:07:14.580Z,1.30
2019-05-30T01:09:18.540Z,2.70
2019-05-30T01:11:22.425Z,1.77
2019-05-30T01:13:26.402Z,3.20
2019-05-30T01:15:30.358Z,1.67
2019-05-30T01:17:34.268Z,3.43
2019-05-30T01:19:38.198Z,2.00
2019-05-30T01:21:42.065Z,2.20
2019-05-30T01:23:46.089Z,1.77
2019-05-30T01:25:49.976Z,1.53
2019-05-30T01:27:53.902Z,1.47
2019-05-30T01:29:57.829Z,1.30
2019-05-30T01:32:03.654Z,1.70
2019-05-30T01:34:07.988Z,1.40
2019-05-30T01:36:12.864Z,1.87
2019-05-30T01:38:16.790Z,1.73
2019-05-30T01:40:20.688Z,4.20
2019-05-30T01:42:24.598Z,1.60
2019-05-30T01:44:28.472Z,1.50
2019-05-30T01:46:32.373Z,1.80
2019-05-30T01:48:36.301Z,3.63
2019-05-30T01:50:40.190Z,1.80
2019-05-30T01:52:44.175Z,1.20
2019-05-30T01:54:48.053Z,1.60
2019-05-30T01:56:51.948Z,3.40
2019-05-30T01:58:55.878Z,1.80
2019-05-30T02:01:14.389Z,1.63
2019-05-30T02:03:06.955Z,1.83
2019-05-30T02:05:11.410Z,1.73
2019-05-30T02:07:15.298Z,2.70
2019-05-30T02:09:19.298Z,2.70
2019-05-30T02:11:23.217Z,2.63
2019-05-30T02:13:27.187Z,2.20
2019-05-30T02:15:31.084Z,3.00
2019-05-30T02:17:34.982Z,2.77
2019-05-30T02:19:38.889Z,2.07
2019-05-30T02:21:42.846Z,2.30
2019-05-30T02:23:46.713Z,2.27
2019-05-30T02:25:50.671Z,2.60
2019-05-30T02:27:54.537Z,1.37
2019-05-30T02:29:58.440Z,2.27
2019-05-30T02:32:03.102Z,1.50
2019-05-30T02:34:09.615Z,2.87
2019-05-30T02:36:14.052Z,2.53
2019-05-30T02:38:18.164Z,2.40
2019-05-30T02:40:22.666Z,2.07
2019-05-30T02:42:26.589Z,1.70
2019-05-30T02:44:30.678Z,1.43
2019-05-30T02:46:34.649Z,3.87
2019-05-30T02:48:57.188Z,2.27
2019-05-30T02:50:44.477Z,2.33
2019-05-30T02:52:48.598Z,2.37
2019-05-30T02:54:52.471Z,2.37
2019-05-30T02:56:56.446Z,2.37
2019-05-30T02:59:01.461Z,4.77
2019-05-30T03:01:07.057Z,3.50
2019-05-30T03:03:13.998Z,4.00
2019-05-30T03:05:17.127Z,3.00
2019-05-30T03:07:21.369Z,2.60
2019-05-30T03:09:25.249Z,2.37
2019-05-30T03:11:30.132Z,2.03
2019-05-30T03:13:34.177Z,2.33
2019-05-30T03:15:38.075Z,3.73
2019-05-30T03:17:41.976Z,2.67
2019-05-30T03:19:46.010Z,5.30
2019-05-30T03:21:49.921Z,4.20
2019-05-30T03:23:53.793Z,2.43
2019-05-30T03:25:57.711Z,3.57
2019-05-30T03:28:02.738Z,4.10
2019-05-30T03:30:16.832Z,4.07
2019-05-30T03:33:00.269Z,3.90
2019-05-30T03:34:27.550Z,3.13
2019-05-30T03:36:30.609Z,6.67
2019-05-30T03:38:31.723Z,3.20
2019-05-30T03:40:35.633Z,2.83
2019-05-30T03:42:39.539Z,4.47
2019-05-30T03:44:43.435Z,4.67
2019-05-30T03:46:50.298Z,5.40
2019-05-30T03:48:55.915Z,3.43
2019-05-30T03:51:00.869Z,4.00
2019-05-30T03:53:06.850Z,2.40
2019-05-30T03:55:12.466Z,3.70
2019-05-30T03:57:24.116Z,4.30
2019-05-30T03:59:36.621Z,6.00
2019-05-30T04:02:02.671Z,5.53
2019-05-30T04:04:16.720Z,6.67
2019-05-30T04:06:25.005Z,3.90
2019-05-30T04:08:31.950Z,5.87
2019-05-30T04:10:38.876Z,5.70
2019-05-30T04:12:55.117Z,7.07
2019-05-30T04:15:21.446Z,5.47
2019-05-30T04:17:25.655Z,4.03
2019-05-30T04:19:29.547Z,4.90
2019-05-30T04:21:33.484Z,4.67
2019-05-30T04:23:37.366Z,4.17
2019-05-30T04:25:41.289Z,6.17
2019-05-30T04:27:45.165Z,6.67
2019-05-30T04:29:49.065Z,3.83
2019-05-30T04:31:53.713Z,6.23
2019-05-30T04:33:57.616Z,5.13
2019-05-30T04:36:01.482Z,9.37
2019-05-30T04:38:05.865Z,5.30
2019-05-30T04:40:11.395Z,5.37
2019-05-30T04:42:16.651Z,5.40
2019-05-30T04:44:21.801Z,4.30
2019-05-30T04:46:25.711Z,5.30
2019-05-30T04:48:29.626Z,5.63
2019-05-30T04:50:34.881Z,5.80
2019-05-30T04:52:38.847Z,6.23
2019-05-30T04:54:42.762Z,4.77
2019-05-30T04:56:48.178Z,6.87
2019-05-30T04:58:53.294Z,7.47
2019-05-30T05:00:58.457Z,5.17
2019-05-30T05:03:03.034Z,7.00
2019-05-30T05:05:11.219Z,7.47
2019-05-30T05:07:15.795Z,7.07
2019-05-30T05:09:20.309Z,7.43
2019-05-30T05:11:25.381Z,8.73
2019-05-30T05:13:30.002Z,7.50
2019-05-30T05:15:33.955Z,6.00
2019-05-30T05:17:38.144Z,6.53
2019-05-30T05:19:44.780Z,6.43
2019-05-30T05:21:49.534Z,7.80
2019-05-30T05:23:53.486Z,7.50
2019-05-30T05:26:01.338Z,7.63
2019-05-30T05:28:06.483Z,12.27
2019-05-30T05:30:13.953Z,11.80
2019-05-30T05:32:18.238Z,7.73
2019-05-30T05:34:22.813Z,12.20
2019-05-30T05:36:27.390Z,7.73
2019-05-30T05:38:34.946Z,8.30
2019-05-30T05:40:39.584Z,9.57
2019-05-30T05:42:43.500Z,8.23
2019-05-30T05:44:48.717Z,10.00
2019-05-30T05:46:54.138Z,12.60
2019-05-30T05:48:58.233Z,12.27
2019-05-30T05:51:02.325Z,8.30
2019-05-30T05:53:06.252Z,6.83
2019-05-30T05:55:11.469Z,9.53
2019-05-30T05:57:16.662Z,8.50
2019-05-30T05:59:21.037Z,8.43
2019-05-30T06:01:25.637Z,8.50
2019-05-30T06:03:30.233Z,11.30
2019-05-30T06:05:50.237Z,9.00
2019-05-30T06:07:42.142Z,8.93
2019-05-30T06:09:46.637Z,7.67
2019-05-30T06:11:50.684Z,9.57
2019-05-30T06:13:54.610Z,10.07
2019-05-30T06:15:58.497Z,8.20
2019-05-30T06:18:02.397Z,11.10
2019-05-30T06:20:06.827Z,9.37
2019-05-30T06:22:11.041Z,9.33
2019-05-30T06:24:15.576Z,8.77
2019-05-30T06:26:20.150Z,8.40
2019-05-30T06:28:24.235Z,10.47
2019-05-30T06:30:29.213Z,8.93
2019-05-30T06:32:33.130Z,9.40
2019-05-30T06:34:39.533Z,8.87
2019-05-30T06:36:42.574Z,9.47
2019-05-30T06:38:46.464Z,11.87
2019-05-30T06:40:51.870Z,9.23
2019-05-30T06:42:55.770Z,8.70
2019-05-30T06:44:59.661Z,8.80
2019-05-30T06:47:03.581Z,9.40
2019-05-30T06:49:07.521Z,10.10
2019-05-30T06:51:14.407Z,12.33
2019-05-30T06:53:16.976Z,9.43
2019-05-30T06:55:21.197Z,12.60
2019-05-30T06:57:25.315Z,8.93
2019-05-30T06:59:29.780Z,10.73
2019-05-30T07:01:33.785Z,9.60
2019-05-30T07:03:37.804Z,10.23
2019-05-30T07:05:41.982Z,7.63
2019-05-30T07:07:46.488Z,8.40
2019-05-30T07:09:50.645Z,11.23
2019-05-30T07:11:54.604Z,10.23
2019-05-30T07:13:58.520Z,9.83
2019-05-30T07:16:02.479Z,9.33
2019-05-30T07:18:06.440Z,9.33
2019-05-30T07:20:11.992Z,10.73
2019-05-30T07:22:18.100Z,9.03
2019-05-30T07:24:22.050Z,10.03
2019-05-30T07:26:26.293Z,8.70
2019-05-30T07:28:30.189Z,9.80
2019-05-30T07:30:34.253Z,11.83
2019-05-30T07:32:38.323Z,9.50
2019-05-30T07:34:45.997Z,8.07
2019-05-30T07:36:50.338Z,10.77
2019-05-30T07:38:56.389Z,8.23
2019-05-30T07:41:00.344Z,9.30
2019-05-30T07:43:04.213Z,8.37
2019-05-30T07:45:10.666Z,11.43
2019-05-30T07:47:14.686Z,11.87
2019-05-30T07:49:21.238Z,11.83
2019-05-30T07:51:26.366Z,9.17
2019-05-30T07:53:30.696Z,9.73
2019-05-30T07:55:37.002Z,10.97
2019-05-30T07:57:41.931Z,10.50
2019-05-30T07:59:47.512Z,11.00
2019-05-30T08:01:51.417Z,11.73
2019-05-30T08:03:55.361Z,9.47
2019-05-30T08:06:00.380Z,10.93
2019-05-30T08:08:23.524Z,8.47
2019-05-30T08:10:27.758Z,9.80
2019-05-30T08:12:32.076Z,10.00
2019-05-30T08:14:37.283Z,9.47
2019-05-30T08:16:41.534Z,8.77
2019-05-30T08:18:45.729Z,6.90
2019-05-30T08:20:49.584Z,9.43
2019-05-30T08:22:53.449Z,9.60
2019-05-30T08:24:57.362Z,9.17
2019-05-30T08:27:02.848Z,9.87
2019-05-30T08:29:06.853Z,10.13
2019-05-30T08:31:10.709Z,6.93
2019-05-30T08:33:14.584Z,8.70
2019-05-30T08:35:18.580Z,6.83
2019-05-30T08:37:22.473Z,8.53
2019-05-30T08:39:26.368Z,6.57
2019-05-30T08:41:31.121Z,6.83
2019-05-30T08:43:35.585Z,6.57
2019-05-30T08:45:39.996Z,6.00
2019-05-30T08:47:44.010Z,7.83
2019-05-30T08:49:47.931Z,6.93
2019-05-30T08:51:51.839Z,7.27
2019-05-30T08:53:55.718Z,8.03
2019-05-30T08:55:59.609Z,7.43
2019-05-30T08:58:03.537Z,10.87
2019-05-30T09:00:08.814Z,7.47
2019-05-30T09:02:12.719Z,6.80
2019-05-30T09:04:16.619Z,5.80
2019-05-30T09:06:20.551Z,8.27
2019-05-30T09:08:24.416Z,9.10
2019-05-30T09:10:28.293Z,7.57
2019-05-30T09:12:32.387Z,7.80
2019-05-30T09:14:37.345Z,6.90
2019-05-30T09:16:41.759Z,7.17
2019-05-30T09:18:45.659Z,7.77
2019-05-30T09:20:49.540Z,7.63
2019-05-30T09:22:53.448Z,10.30
2019-05-30T09:24:57.341Z,7.33
2019-05-30T09:27:01.203Z,7.20
2019-05-30T09:29:05.509Z,7.53
2019-05-30T09:31:09.382Z,7.57
2019-05-30T09:33:13.264Z,7.50
2019-05-30T09:35:18.976Z,9.20
2019-05-30T09:37:22.837Z,8.13
2019-05-30T09:39:29.620Z,7.77
2019-05-30T09:41:32.269Z,8.80
2019-05-30T09:43:36.132Z,10.43
2019-05-30T09:45:41.236Z,6.70
2019-05-30T09:47:47.143Z,6.83
2019-05-30T09:49:51.781Z,7.00
2019-05-30T09:51:56.163Z,8.93
2019-05-30T09:54:00.359Z,8.17
2019-05-30T09:56:04.641Z,7.43
2019-05-30T09:58:09.332Z,6.77
2019-05-30T10:00:16.932Z,6.83
2019-05-30T10:02:20.784Z,5.30
2019-05-30T10:04:25.660Z,7.47
2019-05-30T10:06:30.246Z,20.93
2019-05-30T10:08:34.441Z,28.67
2019-05-30T10:10:38.319Z,58.17
2019-05-30T10:12:42.199Z,36.10
2019-05-30T10:14:46.867Z,13.80
2019-05-30T10:16:54.984Z,8.03
2019-05-30T10:18:57.027Z,37.30
2019-05-30T10:21:01.315Z,43.03
2019-05-30T10:23:05.472Z,11.97
2019-05-30T10:25:09.492Z,12.03
2019-05-30T10:27:13.364Z,50.13
2019-05-30T10:29:17.256Z,27.87
2019-05-30T10:31:21.164Z,28.07
2019-05-30T10:33:25.069Z,38.37
2019-05-30T10:35:30.101Z,11.50
2019-05-30T10:37:34.130Z,25.40
2019-05-30T10:39:37.997Z,25.17
2019-05-30T10:41:41.909Z,18.43
2019-05-30T10:43:46.408Z,13.50
2019-05-30T10:45:51.494Z,10.47
2019-05-30T10:47:55.392Z,20.40
2019-05-30T10:49:59.264Z,12.27
2019-05-30T10:52:03.188Z,14.37
2019-05-30T10:54:07.677Z,19.97
2019-05-30T10:56:11.601Z,16.70
2019-05-30T10:58:15.507Z,17.23
2019-05-30T11:00:21.986Z,9.13
2019-05-30T11:02:25.892Z,12.83
2019-05-30T11:04:29.761Z,12.93
2019-05-30T11:06:42.135Z,14.23
2019-05-30T11:08:49.037Z,14.27
2019-05-30T11:10:53.004Z,10.40
2019-05-30T11:13:05.288Z,12.23
2019-05-30T11:15:02.561Z,10.20
2019-05-30T11:17:06.608Z,14.53
2019-05-30T11:19:10.514Z,16.43
2019-05-30T11:21:14.400Z,11.87
2019-05-30T11:23:18.318Z,12.30
2019-05-30T11:25:22.182Z,12.27
2019-05-30T11:27:26.050Z,12.73
2019-05-30T11:29:29.954Z,12.83
2019-05-30T11:31:33.863Z,12.30
2019-05-30T11:33:37.768Z,10.93
2019-05-30T11:35:41.670Z,12.77
2019-05-30T11:37:45.561Z,11.53
2019-05-30T11:39:49.469Z,10.03
2019-05-30T11:41:53.344Z,8.00
2019-05-30T11:43:57.794Z,10.50
2019-05-30T11:46:01.744Z,9.40
2019-05-30T11:48:05.714Z,10.17
2019-05-30T11:50:12.865Z,11.63
2019-05-30T11:52:16.248Z,10.17
2019-05-30T11:54:20.160Z,10.77
2019-05-30T11:56:24.036Z,12.77
2019-05-30T11:58:28.893Z,10.63
2019-05-30T12:00:32.789Z,8.87
2019-05-30T12:02:36.643Z,9.17
2019-05-30T12:04:40.575Z,10.93
2019-05-30T12:06:44.450Z,9.63
2019-05-30T12:08:48.316Z,11.23
2019-05-30T12:10:53.093Z,8.80
2019-05-30T12:12:57.399Z,10.10
2019-05-30T12:15:01.750Z,9.63
2019-05-30T12:17:05.750Z,12.10
2019-05-30T12:19:09.612Z,9.73
2019-05-30T12:21:13.524Z,11.33
2019-05-30T12:23:17.429Z,7.87
2019-05-30T12:25:21.396Z,10.27
2019-05-30T12:27:25.298Z,8.40
2019-05-30T12:29:29.172Z,9.87
2019-05-30T12:31:33.095Z,11.03
2019-05-30T12:33:36.955Z,8.63
2019-05-30T12:35:40.832Z,9.97
2019-05-30T12:37:54.976Z,12.47
2019-05-30T12:39:50.641Z,13.40
2019-05-30T12:41:54.861Z,8.70
2019-05-30T12:43:59.137Z,12.60
2019-05-30T12:46:03.270Z,12.70
2019-05-30T12:48:07.377Z,8.47
2019-05-30T12:50:12.168Z,9.00
2019-05-30T12:52:16.033Z,9.83
2019-05-30T12:54:19.925Z,9.00
2019-05-30T12:56:23.793Z,12.00
2019-05-30T12:58:27.648Z,10.53
2019-05-30T13:00:34.494Z,9.80
2019-05-30T13:02:38.363Z,11.90
2019-05-30T13:04:45.808Z,10.97
2019-05-30T13:06:53.670Z,10.57
2019-05-30T13:08:55.505Z,10.73
2019-05-30T13:10:59.758Z,12.37
2019-05-30T13:13:04.114Z,8.60
2019-05-30T13:15:08.749Z,10.10
2019-05-30T13:17:14.178Z,9.30
2019-05-30T13:19:18.606Z,8.50
2019-05-30T13:21:22.793Z,9.73
2019-05-30T13:23:26.699Z,9.40
2019-05-30T13:25:30.655Z,12.90
2019-05-30T13:27:34.637Z,9.47
2019-05-30T13:29:38.666Z,8.97
2019-05-30T13:31:45.138Z,10.30
2019-05-30T13:33:49.001Z,9.00
2019-05-30T13:35:53.940Z,8.40
2019-05-30T13:37:58.957Z,9.43
2019-05-30T13:40:03.609Z,11.17
2019-05-30T13:42:07.867Z,8.57
2019-05-30T13:44:11.835Z,9.37
2019-05-30T13:46:15.771Z,9.10
2019-05-30T13:48:22.871Z,8.47
2019-05-30T13:50:26.759Z,8.10
2019-05-30T13:52:31.592Z,10.90
2019-05-30T13:54:35.535Z,11.00
2019-05-30T13:56:39.410Z,11.67
2019-05-30T13:58:43.324Z,11.20
2019-05-30T14:00:47.440Z,9.70
2019-05-30T14:02:51.537Z,7.37
2019-05-30T14:04:55.415Z,8.57
2019-05-30T14:07:02.176Z,9.93
2019-05-30T14:09:08.439Z,8.77
2019-05-30T14:11:12.536Z,23.07
2019-05-30T14:13:16.432Z,9.67
2019-05-30T14:15:20.413Z,7.97
2019-05-30T14:17:26.545Z,7.83
2019-05-30T14:19:31.512Z,9.43
2019-05-30T14:21:35.376Z,9.47
2019-05-30T14:23:39.288Z,9.53
2019-05-30T14:25:43.164Z,8.97
2019-05-30T14:27:47.015Z,7.70
2019-05-30T14:29:50.927Z,8.93
2019-05-30T14:31:54.798Z,8.10
2019-05-30T14:33:58.712Z,11.10
2019-05-30T14:36:05.968Z,8.57
2019-05-30T14:38:08.773Z,9.17
2019-05-30T14:40:15.204Z,8.83
2019-05-30T14:42:19.068Z,9.73
2019-05-30T14:44:23.752Z,13.03
2019-05-30T14:46:27.732Z,7.87
2019-05-30T14:48:31.596Z,8.07
2019-05-30T14:50:35.519Z,9.53
2019-05-30T14:52:39.365Z,8.47
2019-05-30T14:54:43.329Z,9.73
2019-05-30T14:56:47.245Z,8.50
2019-05-30T14:58:51.107Z,9.10
2019-05-30T15:00:55.028Z,8.47
2019-05-30T15:02:58.889Z,9.17
2019-05-30T15:05:02.772Z,9.33
2019-05-30T15:07:07.415Z,9.10
2019-05-30T15:09:21.149Z,9.00
2019-05-30T15:11:16.846Z,8.30
2019-05-30T15:13:20.757Z,9.20
2019-05-30T15:15:24.620Z,11.63
2019-05-30T15:17:28.526Z,12.73
2019-05-30T15:19:32.403Z,6.83
2019-05-30T15:21:36.269Z,8.77
2019-05-30T15:23:40.190Z,9.67
2019-05-30T15:25:44.049Z,7.93
2019-05-30T15:27:48.009Z,9.50
2019-05-30T15:29:51.928Z,8.33
2019-05-30T15:31:55.798Z,10.17
2019-05-30T15:33:59.717Z,9.37
2019-05-30T15:36:03.567Z,10.37
2019-05-30T15:38:08.671Z,9.03
2019-05-30T15:40:13.170Z,10.13
2019-05-30T15:42:17.710Z,12.30
2019-05-30T15:44:21.729Z,8.13
2019-05-30T15:46:25.631Z,10.90
2019-05-30T15:48:29.497Z,8.37
2019-05-30T15:50:34.109Z,9.37
2019-05-30T15:52:38.002Z,10.27
2019-05-30T15:54:41.893Z,8.30
2019-05-30T15:56:45.743Z,8.07
2019-05-30T15:58:49.610Z,9.23
2019-05-30T16:00:53.512Z,10.93
2019-05-30T16:02:57.397Z,12.47
2019-05-30T16:05:01.304Z,8.20
2019-05-30T16:07:05.221Z,10.20
2019-05-30T16:09:10.503Z,13.77
2019-05-30T16:11:14.918Z,7.90
2019-05-30T16:13:19.493Z,9.73
2019-05-30T16:15:23.549Z,10.87
2019-05-30T16:17:27.417Z,7.27
2019-05-30T16:19:31.278Z,12.10
2019-05-30T16:21:35.179Z,10.47
2019-05-30T16:23:39.048Z,10.20
2019-05-30T16:25:42.972Z,10.97
2019-05-30T16:27:46.837Z,15.67
2019-05-30T16:29:50.710Z,13.27
2019-05-30T16:31:54.664Z,10.33
2019-05-30T16:33:58.541Z,10.97
2019-05-30T16:36:02.398Z,10.03
2019-05-30T16:38:06.299Z,9.63
2019-05-30T16:40:10.908Z,9.17
2019-05-30T16:42:14.772Z,12.53
2019-05-30T16:44:18.697Z,12.20
2019-05-30T16:46:22.762Z,10.57
2019-05-30T16:48:26.833Z,12.83
2019-05-30T16:50:30.716Z,11.33
2019-05-30T16:52:34.571Z,9.47
2019-05-30T16:54:38.439Z,13.60
2019-05-30T16:56:42.385Z,12.80
2019-05-30T16:58:46.248Z,10.20
2019-05-30T17:00:50.111Z,13.37
2019-05-30T17:02:54.017Z,10.57
2019-05-30T17:04:57.944Z,11.53
2019-05-30T17:07:01.897Z,9.40
2019-05-30T17:09:06.873Z,11.20
2019-05-30T17:11:10.768Z,8.23
2019-05-30T17:13:15.658Z,15.53
2019-05-30T17:15:20.049Z,10.23
2019-05-30T17:17:24.185Z,8.93
2019-05-30T17:19:28.326Z,14.13
2019-05-30T17:21:32.234Z,8.77
2019-05-30T17:23:36.136Z,13.40
2019-05-30T17:25:40.014Z,13.03
2019-05-30T17:27:43.929Z,13.83
2019-05-30T17:29:47.832Z,18.93
2019-05-30T17:31:51.697Z,20.73
2019-05-30T17:33:55.560Z,13.60
2019-05-30T17:35:59.465Z,27.20
2019-05-30T17:38:03.336Z,13.60
2019-05-30T17:40:08.058Z,21.33
2019-05-30T17:42:11.948Z,19.87
2019-05-30T17:44:15.852Z,19.23
2019-05-30T17:46:19.728Z,17.57
2019-05-30T17:48:23.615Z,14.70
2019-05-30T17:50:27.845Z,14.67
2019-05-30T17:52:31.788Z,14.07
2019-05-30T17:54:35.717Z,20.47
2019-05-30T17:56:39.663Z,18.00
2019-05-30T17:58:43.523Z,16.17
2019-05-30T18:00:47.466Z,7.97
2019-05-30T18:02:51.316Z,9.80
2019-05-30T18:04:55.182Z,14.47
2019-05-30T18:06:59.081Z,9.27
2019-05-30T18:09:03.385Z,12.33
2019-05-30T18:11:07.316Z,16.63
2019-05-30T18:13:11.171Z,10.70
2019-05-30T18:15:15.971Z,8.53
2019-05-30T18:17:21.188Z,8.50
2019-05-30T18:19:25.362Z,10.20
2019-05-30T18:21:29.568Z,9.57
2019-05-30T18:23:33.494Z,9.67
2019-05-30T18:25:37.351Z,14.17
2019-05-30T18:27:41.230Z,12.77
2019-05-30T18:29:45.136Z,7.93
2019-05-30T18:31:49.000Z,9.63
2019-05-30T18:33:52.913Z,9.63
2019-05-30T18:35:56.880Z,8.13
2019-05-30T18:38:01.979Z,9.27
2019-05-30T18:40:11.270Z,13.18
2019-05-30T18:42:15.126Z,7.77
2019-05-30T18:44:18.993Z,8.30
2019-05-30T18:46:23.081Z,14.03
2019-05-30T18:48:27.243Z,12.40
2019-05-30T18:50:31.637Z,9.23
2019-05-30T18:52:36.720Z,15.13
2019-05-30T18:54:40.812Z,13.40
2019-05-30T18:56:44.718Z,9.93
2019-05-30T18:58:48.716Z,10.73
2019-05-30T19:00:52.608Z,12.17
2019-05-30T19:02:56.587Z,9.77
2019-05-30T19:05:00.478Z,9.40
2019-05-30T19:07:04.344Z,7.90
2019-05-30T19:09:08.545Z,9.83
2019-05-30T19:11:26.725Z,13.03
2019-05-30T19:13:17.927Z,9.00
2019-05-30T19:15:22.251Z,8.13
2019-05-30T19:17:27.537Z,8.07
2019-05-30T19:19:31.857Z,11.40
2019-05-30T19:21:36.217Z,9.07
2019-05-30T19:23:40.160Z,7.10
2019-05-30T19:25:44.483Z,9.57
2019-05-30T19:27:48.348Z,8.63
2019-05-30T19:29:52.214Z,8.57
2019-05-30T19:31:56.139Z,11.10
2019-05-30T19:33:59.991Z,8.73
2019-05-30T19:36:03.947Z,9.37
2019-05-30T19:38:07.824Z,12.73
2019-05-30T19:40:12.404Z,7.93
2019-05-30T19:42:16.333Z,7.20
2019-05-30T19:44:20.252Z,7.00
2019-05-30T19:46:24.179Z,7.80
2019-05-30T19:48:28.281Z,9.33
2019-05-30T19:50:36.731Z,7.27
2019-05-30T19:52:41.465Z,10.60
2019-05-30T19:54:45.361Z,10.90
2019-05-30T19:56:50.401Z,10.53
2019-05-30T19:58:55.351Z,11.93
2019-05-30T20:01:00.996Z,9.37
2019-05-30T20:03:05.496Z,8.93
2019-05-30T20:05:09.765Z,9.80
2019-05-30T20:07:13.634Z,11.23
2019-05-30T20:09:17.534Z,9.57
2019-05-30T20:11:21.401Z,8.67
2019-05-30T20:13:26.055Z,8.60
2019-05-30T20:15:31.169Z,10.47
2019-05-30T20:17:37.605Z,8.27
2019-05-30T20:19:42.011Z,11.20
2019-05-30T20:21:45.967Z,8.07
2019-05-30T20:23:58.371Z,9.57
2019-05-30T20:25:59.463Z,10.60
2019-05-30T20:28:03.328Z,10.10
2019-05-30T20:30:08.863Z,8.53
2019-05-30T20:32:12.787Z,10.07
2019-05-30T20:34:16.635Z,9.07
2019-05-30T20:36:22.873Z,9.03
2019-05-30T20:38:28.959Z,11.13
2019-05-30T20:40:34.814Z,9.37
2019-05-30T20:42:39.497Z,6.57
2019-05-30T20:44:45.432Z,11.10
2019-05-30T20:46:49.338Z,8.63
2019-05-30T20:48:53.204Z,9.50
2019-05-30T20:50:57.115Z,10.73
2019-05-30T20:53:02.317Z,10.53
2019-05-30T20:55:08.382Z,9.60
2019-05-30T20:57:12.328Z,9.33
2019-05-30T20:59:16.239Z,8.37
2019-05-30T21:01:20.093Z,8.30
2019-05-30T21:03:23.953Z,12.23
2019-05-30T21:05:27.860Z,8.97
2019-05-30T21:07:31.724Z,8.10
2019-05-30T21:09:36.427Z,9.80
2019-05-30T21:11:44.233Z,6.03
2019-05-30T21:13:51.314Z,8.53
2019-05-30T21:15:56.628Z,7.73
2019-05-30T21:18:00.519Z,9.87
2019-05-30T21:20:06.081Z,9.87
2019-05-30T21:22:09.960Z,9.33
2019-05-30T21:24:13.831Z,9.07
2019-05-30T21:26:17.729Z,12.37
2019-05-30T21:28:21.599Z,14.50
2019-05-30T21:30:25.587Z,10.70
2019-05-30T21:32:29.473Z,7.83
2019-05-30T21:34:33.473Z,6.83
2019-05-30T21:36:37.799Z,8.40
2019-05-30T21:38:41.952Z,11.10
2019-05-30T21:40:46.581Z,8.73
2019-05-30T21:43:05.047Z,12.07
2019-05-30T21:44:56.126Z,7.73
2019-05-30T21:47:00.068Z,7.70
2019-05-30T21:49:03.934Z,6.87
2019-05-30T21:51:07.798Z,8.77
2019-05-30T21:53:11.301Z,7.13
2019-05-30T21:55:15.160Z,11.83
2019-05-30T21:57:19.020Z,8.90
2019-05-30T21:59:22.968Z,6.73
2019-05-30T22:01:29.820Z,11.67
2019-05-30T22:03:33.682Z,7.77
2019-05-30T22:05:37.584Z,8.77
2019-05-30T22:07:41.463Z,7.67
2019-05-30T22:09:45.364Z,8.00
2019-05-30T22:11:49.671Z,8.57
2019-05-30T22:13:53.612Z,9.00
2019-05-30T22:15:57.533Z,6.83
2019-05-30T22:18:01.393Z,7.47
2019-05-30T22:20:06.984Z,8.90
2019-05-30T22:22:10.876Z,7.13
2019-05-30T22:24:14.756Z,10.90
2019-05-30T22:26:18.688Z,7.53
2019-05-30T22:28:22.546Z,9.10
2019-05-30T22:30:26.409Z,6.97
2019-05-30T22:32:30.312Z,7.47
2019-05-30T22:34:34.180Z,8.53
2019-05-30T22:36:38.055Z,10.27
2019-05-30T22:38:42.726Z,7.40
2019-05-30T22:40:47.826Z,11.67
2019-05-30T22:42:52.246Z,7.50
2019-05-30T22:44:56.554Z,10.87
2019-05-30T22:47:00.507Z,8.60
2019-05-30T22:49:04.409Z,8.70
2019-05-30T22:51:08.274Z,9.67
2019-05-30T22:53:12.142Z,10.50
2019-05-30T22:55:16.040Z,8.73
2019-05-30T22:57:19.907Z,7.07
2019-05-30T22:59:23.819Z,9.53
2019-05-30T23:01:27.682Z,9.80
2019-05-30T23:03:31.585Z,10.83
2019-05-30T23:05:35.464Z,10.00
2019-05-30T23:07:39.341Z,10.83
2019-05-30T23:09:43.555Z,11.83
2019-05-30T23:11:47.700Z,8.93
2019-05-30T23:13:52.007Z,8.90
2019-05-30T23:15:56.331Z,12.77
2019-05-30T23:18:00.209Z,9.77
2019-05-30T23:20:05.541Z,8.80
2019-05-30T23:22:09.449Z,8.53
2019-05-30T23:24:13.301Z,8.57
2019-05-30T23:26:17.204Z,8.67
2019-05-30T23:28:21.073Z,13.00
2019-05-30T23:30:24.971Z,7.90
2019-05-30T23:32:28.877Z,6.87
2019-05-30T23:34:32.723Z,8.00
2019-05-30T23:36:36.601Z,11.80
2019-05-30T23:38:40.505Z,9.77
2019-05-30T23:40:44.382Z,9.23
2019-05-30T23:42:48.953Z,8.87
2019-05-30T23:44:53.344Z,14.67
2019-05-30T23:46:57.770Z,10.40
2019-05-30T23:49:01.853Z,12.37
2019-05-30T23:51:05.716Z,9.57
2019-05-30T23:53:09.580Z,12.73
2019-05-30T23:55:13.589Z,10.43
2019-05-30T23:57:17.468Z,10.77
2019-05-30T23:59:21.348Z,9.83
